createdAt,value
2018-05-15T00:01:22.129Z,51.35
2018-05-15T00:03:48.450Z,51.58
2018-05-15T00:06:14.864Z,51.46
2018-05-15T00:08:41.209Z,51.69
2018-05-15T00:11:07.610Z,51.74
2018-05-15T00:13:33.925Z,51.95
2018-05-15T00:16:00.262Z,51.68
2018-05-15T00:18:26.572Z,51.91
2018-05-15T00:20:52.900Z,51.94
2018-05-15T00:23:19.276Z,52.08
2018-05-15T00:25:45.667Z,52.04
2018-05-15T00:28:11.993Z,52.16
2018-05-15T00:30:45.376Z,51.87
2018-05-15T00:33:11.863Z,51.74
2018-05-15T00:35:38.192Z,51.37
2018-05-15T00:38:04.541Z,51.56
2018-05-15T00:51:12.296Z,51.33
2018-05-15T00:53:38.707Z,51.21
2018-05-15T00:56:05.102Z,51.26
2018-05-15T00:58:31.501Z,51.18
2018-05-15T01:03:40.677Z,50.78
2018-05-15T01:06:07.674Z,50.63
2018-05-15T01:08:34.045Z,50.59
2018-05-15T01:11:00.369Z,50.70
2018-05-15T01:13:26.704Z,50.93
2018-05-15T01:15:53.049Z,51.04
2018-05-15T01:18:19.458Z,51.37
2018-05-15T01:20:45.783Z,51.30
2018-05-15T01:23:20.109Z,51.27
2018-05-15T01:25:46.476Z,51.27
2018-05-15T01:28:13.808Z,51.29
2018-05-15T01:30:40.137Z,51.19
2018-05-15T01:33:06.565Z,51.08
2018-05-15T01:35:33.128Z,51.00
2018-05-15T01:37:59.703Z,50.93
2018-05-15T01:40:26.192Z,50.91
2018-05-15T01:42:52.527Z,50.80
2018-05-15T01:45:18.886Z,50.91
2018-05-15T01:47:45.237Z,51.00
2018-05-15T01:50:11.697Z,50.99
2018-05-15T01:52:38.244Z,50.98
2018-05-15T01:55:04.638Z,51.03
2018-05-15T01:57:30.997Z,51.02
2018-05-15T01:59:57.357Z,51.01
2018-05-15T02:02:23.869Z,51.12
2018-05-15T02:04:50.299Z,51.03
2018-05-15T02:07:16.664Z,51.23
2018-05-15T02:09:43.095Z,51.16
2018-05-15T02:12:09.479Z,51.27
2018-05-15T02:14:36.056Z,51.33
2018-05-15T02:17:02.802Z,51.27
2018-05-15T02:19:29.199Z,51.15
2018-05-15T02:21:55.557Z,51.18
2018-05-15T02:24:21.930Z,51.21
2018-05-15T02:26:48.262Z,51.29
2018-05-15T02:29:14.609Z,51.25
2018-05-15T02:31:40.997Z,51.23
2018-05-15T02:34:07.625Z,51.22
2018-05-15T02:36:33.958Z,51.31
2018-05-15T02:39:00.365Z,51.34
2018-05-15T02:41:26.715Z,51.17
2018-05-15T02:43:53.069Z,51.23
2018-05-15T02:46:19.624Z,51.17
2018-05-15T02:48:46.046Z,51.20
2018-05-15T02:51:12.382Z,51.26
2018-05-15T02:53:38.769Z,51.26
2018-05-15T02:56:05.101Z,51.16
2018-05-15T02:58:31.689Z,51.22
2018-05-15T03:00:58.071Z,51.15
2018-05-15T03:03:24.606Z,51.15
2018-05-15T03:05:51.020Z,51.19
2018-05-15T03:10:50.012Z,51.29
2018-05-15T03:13:16.383Z,51.49
2018-05-15T03:15:43.157Z,51.42
2018-05-15T03:18:09.538Z,51.59
2018-05-15T03:20:36.203Z,51.40
2018-05-15T03:23:02.660Z,51.40
2018-05-15T03:25:29.012Z,51.26
2018-05-15T03:27:55.335Z,51.25
2018-05-15T03:30:22.080Z,51.12
2018-05-15T03:32:48.479Z,50.98
2018-05-15T03:35:14.806Z,50.89
2018-05-15T03:37:41.243Z,50.60
2018-05-15T03:40:07.827Z,50.52
2018-05-15T03:42:34.200Z,50.38
2018-05-15T03:45:00.531Z,50.28
2018-05-15T03:47:26.911Z,50.29
2018-05-15T03:49:53.288Z,50.07
2018-05-15T03:52:19.677Z,49.70
2018-05-15T03:54:46.089Z,49.64
2018-05-15T03:57:12.420Z,49.44
2018-05-15T03:59:38.972Z,49.80
2018-05-15T04:02:05.603Z,49.50
2018-05-15T04:04:31.968Z,49.23
2018-05-15T04:06:58.294Z,49.01
2018-05-15T04:09:24.713Z,49.00
2018-05-15T04:11:51.173Z,48.91
2018-05-15T04:14:17.778Z,48.86
2018-05-15T04:16:44.144Z,48.69
2018-05-15T04:19:10.534Z,48.49
2018-05-15T04:21:37.039Z,48.36
2018-05-15T04:24:03.445Z,48.38
2018-05-15T04:26:30.623Z,48.28
2018-05-15T04:28:57.132Z,48.34
2018-05-15T04:31:23.522Z,48.29
2018-05-15T04:33:49.868Z,48.16
2018-05-15T04:36:16.245Z,48.17
2018-05-15T04:38:42.739Z,48.04
2018-05-15T04:41:09.190Z,48.01
2018-05-15T04:43:35.659Z,48.11
2018-05-15T04:46:02.040Z,48.22
2018-05-15T04:48:28.500Z,48.09
2018-05-15T04:50:54.951Z,48.19
2018-05-15T04:53:21.318Z,48.25
2018-05-15T04:55:47.729Z,48.16
2018-05-15T04:58:14.524Z,48.19
2018-05-15T05:00:41.236Z,48.22
2018-05-15T05:03:08.027Z,48.20
2018-05-15T05:05:34.448Z,48.18
2018-05-15T05:08:00.781Z,48.19
2018-05-15T05:10:27.113Z,48.42
2018-05-15T05:12:53.616Z,48.21
2018-05-15T05:15:20.018Z,48.14
2018-05-15T05:17:47.711Z,48.04
2018-05-15T05:20:14.124Z,48.04
2018-05-15T05:22:40.597Z,48.08
2018-05-15T05:25:07.371Z,47.99
2018-05-15T05:27:33.784Z,47.74
2018-05-15T05:30:00.556Z,47.93
2018-05-15T05:32:27.050Z,47.96
2018-05-15T05:34:53.818Z,47.86
2018-05-15T05:37:20.206Z,47.96
2018-05-15T05:39:46.828Z,47.83
2018-05-15T05:42:13.319Z,47.79
2018-05-15T05:44:39.747Z,47.84
2018-05-15T05:47:06.294Z,47.70
2018-05-15T05:49:32.740Z,47.68
2018-05-15T05:51:59.727Z,47.66
2018-05-15T05:54:26.278Z,47.42
2018-05-15T05:56:52.780Z,47.41
2018-05-15T05:59:19.382Z,47.28
2018-05-15T06:01:45.829Z,47.35
2018-05-15T06:04:12.694Z,47.42
2018-05-15T06:06:39.304Z,47.30
2018-05-15T06:09:05.775Z,47.13
2018-05-15T06:11:33.436Z,47.28
2018-05-15T06:13:59.934Z,47.11
2018-05-15T06:16:26.388Z,47.33
2018-05-15T06:18:53.966Z,47.18
2018-05-15T06:21:20.624Z,47.21
2018-05-15T06:23:47.296Z,47.25
2018-05-15T06:26:13.954Z,47.01
2018-05-15T06:28:41.115Z,47.26
2018-05-15T06:31:08.545Z,47.21
2018-05-15T06:33:35.432Z,47.06
2018-05-15T06:36:02.178Z,47.08
2018-05-15T06:38:29.252Z,47.41
2018-05-15T06:40:56.581Z,47.05
2018-05-15T06:43:24.359Z,47.20
2018-05-15T06:45:51.145Z,47.18
2018-05-15T06:48:20.118Z,47.12
2018-05-15T06:53:26.212Z,47.03
2018-05-15T06:55:53.064Z,47.13
2018-05-15T06:58:20.932Z,47.08
2018-05-15T07:00:47.750Z,47.29
2018-05-15T07:03:14.550Z,47.34
2018-05-15T07:05:41.234Z,47.32
2018-05-15T07:08:08.106Z,47.18
2018-05-15T07:10:37.744Z,47.50
2018-05-15T07:13:04.964Z,47.15
2018-05-15T07:15:32.109Z,47.16
2018-05-15T07:17:58.799Z,47.33
2018-05-15T07:23:04.792Z,47.23
2018-05-15T07:25:31.855Z,47.23
2018-05-15T07:27:58.703Z,47.45
2018-05-15T07:30:35.567Z,47.70
2018-05-15T07:33:02.392Z,47.84
2018-05-15T07:35:29.061Z,47.71
2018-05-15T07:37:55.765Z,47.61
2018-05-15T07:40:22.676Z,47.60
2018-05-15T07:42:49.307Z,47.93
2018-05-15T07:45:16.040Z,47.76
2018-05-15T07:47:42.870Z,47.73
2018-05-15T07:50:11.812Z,47.74
2018-05-15T07:52:39.417Z,47.58
2018-05-15T07:55:06.261Z,47.44
2018-05-15T07:57:33.124Z,47.58
2018-05-15T08:00:00.005Z,47.86
2018-05-15T08:02:26.808Z,47.59
2018-05-15T08:04:55.913Z,47.59
2018-05-15T08:07:23.575Z,47.37
2018-05-15T08:09:50.471Z,47.64
2018-05-15T08:12:17.304Z,47.23
2018-05-15T08:14:44.150Z,47.50
2018-05-15T08:17:10.904Z,47.43
2018-05-15T08:19:38.528Z,47.64
2018-05-15T08:22:05.271Z,47.78
2018-05-15T08:24:31.885Z,47.26
2018-05-15T08:26:58.465Z,47.50
2018-05-15T08:29:25.439Z,47.66
2018-05-15T08:31:52.249Z,47.50
2018-05-15T08:34:18.946Z,47.86
2018-05-15T08:36:45.765Z,47.35
2018-05-15T08:39:12.422Z,47.43
2018-05-15T08:41:39.133Z,47.63
2018-05-15T08:44:05.925Z,47.53
2018-05-15T08:46:32.687Z,47.76
2018-05-15T08:48:59.537Z,47.79
2018-05-15T08:51:27.122Z,47.72
2018-05-15T08:53:56.089Z,48.01
2018-05-15T08:56:22.865Z,47.81
2018-05-15T08:58:49.463Z,47.81
2018-05-15T09:01:16.276Z,47.98
2018-05-15T09:03:43.997Z,48.07
2018-05-15T09:06:10.835Z,48.36
2018-05-15T09:08:37.742Z,47.96
2018-05-15T09:11:04.466Z,48.02
2018-05-15T09:13:31.086Z,48.07
2018-05-15T09:15:57.755Z,48.09
2018-05-15T09:18:24.916Z,48.22
2018-05-15T09:20:51.555Z,48.28
2018-05-15T09:23:18.056Z,48.08
2018-05-15T09:25:44.947Z,48.22
2018-05-15T09:28:13.444Z,48.07
2018-05-15T09:30:39.928Z,48.29
2018-05-15T09:33:06.402Z,47.99
2018-05-15T09:35:32.826Z,48.27
2018-05-15T09:37:59.469Z,48.02
2018-05-15T09:40:25.903Z,48.10
2018-05-15T09:42:52.519Z,48.10
2018-05-15T09:45:18.970Z,48.24
2018-05-15T09:47:45.718Z,48.38
2018-05-15T09:50:15.076Z,48.18
2018-05-15T09:52:41.577Z,47.71
2018-05-15T09:55:08.168Z,47.90
2018-05-15T09:57:35.109Z,48.04
2018-05-15T10:00:01.660Z,47.82
2018-05-15T10:02:28.283Z,48.15
2018-05-15T10:04:55.451Z,47.87
2018-05-15T10:07:22.157Z,47.68
2018-05-15T10:09:48.847Z,47.94
2018-05-15T10:12:15.250Z,48.14
2018-05-15T10:14:41.887Z,48.28
2018-05-15T10:17:08.328Z,48.09
2018-05-15T10:19:34.738Z,47.53
2018-05-15T10:22:01.184Z,47.66
2018-05-15T10:24:27.749Z,47.94
2018-05-15T10:26:54.225Z,48.10
2018-05-15T10:29:20.724Z,47.96
2018-05-15T10:31:47.238Z,47.78
2018-05-15T10:34:14.382Z,47.86
2018-05-15T10:36:40.925Z,47.67
2018-05-15T10:39:07.361Z,47.78
2018-05-15T10:41:33.816Z,47.62
2018-05-15T10:44:00.678Z,47.52
2018-05-15T10:46:27.311Z,47.17
2018-05-15T10:48:53.743Z,47.19
2018-05-15T10:51:20.204Z,47.00
2018-05-15T10:53:47.498Z,46.65
2018-05-15T10:56:14.293Z,46.56
2018-05-15T10:58:40.961Z,46.33
2018-05-15T11:01:07.366Z,46.26
2018-05-15T11:03:34.489Z,46.23
2018-05-15T11:06:01.255Z,45.82
2018-05-15T11:08:28.663Z,45.69
2018-05-15T11:10:55.363Z,45.74
2018-05-15T11:13:22.386Z,45.27
2018-05-15T11:15:51.139Z,45.40
2018-05-15T11:18:17.712Z,45.12
2018-05-15T11:20:44.210Z,44.99
2018-05-15T11:23:10.817Z,44.84
2018-05-15T11:25:37.353Z,44.26
2018-05-15T11:28:04.060Z,44.42
2018-05-15T11:30:30.632Z,44.36
2018-05-15T11:32:57.114Z,44.07
2018-05-15T11:35:23.579Z,43.91
2018-05-15T11:37:52.145Z,43.95
2018-05-15T11:40:18.588Z,43.71
2018-05-15T11:42:45.105Z,43.38
2018-05-15T11:45:11.825Z,43.16
2018-05-15T11:47:38.660Z,43.35
2018-05-15T11:50:05.801Z,42.90
2018-05-15T11:52:32.072Z,42.75
2018-05-15T11:54:57.903Z,42.83
2018-05-15T11:57:24.423Z,42.52
2018-05-15T11:59:51.221Z,42.43
2018-05-15T12:02:17.900Z,42.36
2018-05-15T12:04:44.681Z,42.10
2018-05-15T12:07:11.517Z,42.31
2018-05-15T12:09:39.248Z,42.26
2018-05-15T12:12:06.108Z,41.98
2018-05-15T12:14:32.618Z,42.06
2018-05-15T12:16:59.085Z,41.98
2018-05-15T12:19:25.594Z,42.06
2018-05-15T12:21:52.060Z,42.01
2018-05-15T12:24:18.884Z,41.79
2018-05-15T12:26:45.422Z,41.81
2018-05-15T12:29:11.959Z,41.68
2018-05-15T12:31:38.688Z,41.45
2018-05-15T12:34:05.088Z,41.25
2018-05-15T12:36:31.767Z,41.24
2018-05-15T12:38:58.423Z,41.02
2018-05-15T12:41:25.087Z,41.47
2018-05-15T12:43:51.492Z,41.22
2018-05-15T12:46:17.913Z,41.17
2018-05-15T12:48:44.494Z,41.03
2018-05-15T12:51:10.995Z,41.12
2018-05-15T12:53:38.252Z,41.15
2018-05-15T12:56:04.686Z,41.04
2018-05-15T12:58:31.540Z,40.93
2018-05-15T13:00:58.204Z,41.06
2018-05-15T13:03:24.681Z,41.05
2018-05-15T13:05:51.075Z,40.77
2018-05-15T13:08:17.476Z,40.78
2018-05-15T13:10:43.938Z,40.78
2018-05-15T13:13:10.621Z,40.63
2018-05-15T13:15:37.161Z,40.48
2018-05-15T13:18:03.658Z,40.62
2018-05-15T13:20:30.652Z,40.51
2018-05-15T13:22:57.275Z,40.62
2018-05-15T13:25:25.479Z,40.37
2018-05-15T13:27:51.868Z,40.33
2018-05-15T13:30:18.624Z,40.34
2018-05-15T13:32:45.132Z,40.16
2018-05-15T13:35:11.915Z,40.05
2018-05-15T13:37:39.072Z,40.02
2018-05-15T13:40:05.916Z,40.13
2018-05-15T13:42:32.831Z,40.19
2018-05-15T13:44:59.722Z,40.17
2018-05-15T13:47:26.212Z,40.27
2018-05-15T13:49:52.704Z,40.10
2018-05-15T13:52:19.920Z,40.00
2018-05-15T13:54:46.345Z,40.23
2018-05-15T13:57:12.695Z,40.19
2018-05-15T13:59:39.120Z,40.56
2018-05-15T14:02:05.628Z,40.10
2018-05-15T14:04:32.082Z,40.05
2018-05-15T14:06:58.705Z,40.07
2018-05-15T14:09:25.140Z,39.82
2018-05-15T14:11:51.627Z,40.04
2018-05-15T14:14:18.974Z,39.78
2018-05-15T14:16:45.472Z,39.87
2018-05-15T14:19:11.934Z,40.05
2018-05-15T14:21:38.378Z,39.91
2018-05-15T14:24:04.805Z,39.83
2018-05-15T14:26:31.269Z,39.83
2018-05-15T14:28:57.687Z,39.86
2018-05-15T14:31:24.248Z,39.98
2018-05-15T14:33:50.679Z,40.20
2018-05-15T14:36:17.157Z,40.09
2018-05-15T14:38:43.541Z,40.35
2018-05-15T14:41:09.962Z,40.46
2018-05-15T14:43:36.457Z,40.14
2018-05-15T14:46:03.119Z,40.13
2018-05-15T14:48:32.502Z,40.11
2018-05-15T14:50:58.929Z,40.11
2018-05-15T14:53:25.347Z,39.81
2018-05-15T14:55:51.832Z,39.95
2018-05-15T14:58:18.287Z,39.70
2018-05-15T15:00:44.692Z,39.71
2018-05-15T15:03:11.088Z,39.74
2018-05-15T15:05:37.579Z,39.89
2018-05-15T15:08:03.961Z,40.04
2018-05-15T15:10:30.332Z,40.32
2018-05-15T15:12:56.693Z,40.27
2018-05-15T15:15:23.183Z,40.35
2018-05-15T15:17:49.581Z,40.54
2018-05-15T15:20:16.649Z,40.72
2018-05-15T15:22:43.108Z,40.73
2018-05-15T15:25:09.515Z,40.72
2018-05-15T15:27:35.979Z,40.87
2018-05-15T15:30:02.400Z,41.00
2018-05-15T15:32:28.735Z,41.04
2018-05-15T15:34:55.071Z,41.13
2018-05-15T15:37:21.694Z,41.16
2018-05-15T15:39:48.070Z,41.32
2018-05-15T15:42:14.479Z,41.50
2018-05-15T15:44:40.898Z,41.55
2018-05-15T15:47:07.403Z,41.80
2018-05-15T15:49:33.834Z,41.76
2018-05-15T15:52:00.178Z,42.41
2018-05-15T15:54:26.543Z,42.39
2018-05-15T15:56:53.083Z,42.41
2018-05-15T15:59:19.424Z,42.34
2018-05-15T16:01:45.790Z,42.23
2018-05-15T16:04:12.184Z,42.35
2018-05-15T16:06:38.702Z,42.24
2018-05-15T16:09:05.080Z,42.14
2018-05-15T16:11:31.580Z,42.17
2018-05-15T16:13:57.936Z,42.26
2018-05-15T16:16:24.343Z,42.20
2018-05-15T16:18:50.785Z,42.28
2018-05-15T16:21:17.279Z,42.20
2018-05-15T16:23:43.643Z,42.40
2018-05-15T16:26:10.075Z,42.44
2018-05-15T16:28:36.730Z,42.51
2018-05-15T16:31:03.120Z,42.48
2018-05-15T16:33:29.568Z,42.83
2018-05-15T16:35:55.899Z,43.10
2018-05-15T16:38:22.381Z,43.42
2018-05-15T16:40:48.824Z,43.42
2018-05-15T16:43:15.216Z,43.48
2018-05-15T16:45:41.545Z,43.55
2018-05-15T16:48:07.995Z,43.65
2018-05-15T16:50:34.362Z,43.98
2018-05-15T16:53:00.725Z,44.01
2018-05-15T16:55:27.057Z,43.85
2018-05-15T16:57:53.423Z,43.76
2018-05-15T17:00:19.850Z,43.65
2018-05-15T17:02:46.204Z,43.64
2018-05-15T17:05:12.525Z,43.56
2018-05-15T17:07:38.880Z,43.72
2018-05-15T17:10:05.211Z,43.61
2018-05-15T17:12:31.685Z,43.77
2018-05-15T17:14:58.103Z,43.89
2018-05-15T17:17:24.475Z,43.81
2018-05-15T17:19:50.872Z,43.95
2018-05-15T17:22:17.244Z,43.69
2018-05-15T17:24:43.575Z,43.75
2018-05-15T17:27:09.916Z,44.22
2018-05-15T17:29:37.013Z,43.68
2018-05-15T17:32:03.650Z,43.70
2018-05-15T17:34:30.040Z,43.57
2018-05-15T17:36:56.366Z,44.07
2018-05-15T17:39:22.747Z,44.03
2018-05-15T17:41:49.115Z,43.75
2018-05-15T17:44:15.445Z,43.68
2018-05-15T17:46:41.813Z,43.57
2018-05-15T17:49:08.170Z,43.62
2018-05-15T17:51:34.556Z,43.64
2018-05-15T17:54:01.021Z,43.91
2018-05-15T17:56:27.339Z,43.77
2018-05-15T17:58:53.720Z,43.70
2018-05-15T18:01:20.071Z,43.65
2018-05-15T18:03:46.504Z,43.61
2018-05-15T18:06:12.862Z,43.62
2018-05-15T18:08:39.241Z,43.62
2018-05-15T18:11:05.588Z,43.63
2018-05-15T18:13:31.970Z,43.71
2018-05-15T18:15:58.328Z,43.76
2018-05-15T18:18:24.744Z,43.82
2018-05-15T18:20:51.104Z,43.85
2018-05-15T18:23:17.490Z,43.99
2018-05-15T18:25:43.879Z,44.00
2018-05-15T18:28:10.268Z,44.01
2018-05-15T18:30:36.662Z,44.01
2018-05-15T18:33:03.111Z,43.96
2018-05-15T18:35:29.337Z,43.89
2018-05-15T18:37:55.704Z,43.93
2018-05-15T18:40:22.040Z,43.97
2018-05-15T18:42:48.595Z,44.07
2018-05-15T18:45:15.008Z,44.00
2018-05-15T18:47:41.339Z,44.06
2018-05-15T18:50:07.839Z,44.01
2018-05-15T18:52:34.201Z,44.10
2018-05-15T18:55:00.537Z,44.16
2018-05-15T18:57:26.864Z,44.30
2018-05-15T18:59:53.219Z,44.18
2018-05-15T19:02:19.653Z,44.26
2018-05-15T19:04:45.990Z,44.35
2018-05-15T19:07:12.360Z,44.47
2018-05-15T19:09:38.721Z,44.43
2018-05-15T19:12:05.105Z,44.55
2018-05-15T19:14:31.444Z,44.62
2018-05-15T19:16:57.789Z,44.55
2018-05-15T19:19:24.168Z,44.59
2018-05-15T19:21:50.448Z,44.62
2018-05-15T19:24:16.899Z,44.68
2018-05-15T19:26:43.321Z,44.77
2018-05-15T19:29:09.707Z,44.85
2018-05-15T19:31:36.107Z,44.83
2018-05-15T19:34:02.449Z,44.93
2018-05-15T19:36:28.781Z,45.09
2018-05-15T19:38:55.165Z,45.15
2018-05-15T19:41:21.532Z,45.22
2018-05-15T19:43:47.926Z,45.34
2018-05-15T19:46:14.265Z,45.47
2018-05-15T19:48:40.611Z,45.54
2018-05-15T19:51:06.958Z,45.56
2018-05-15T19:53:33.359Z,45.65
2018-05-15T19:55:59.684Z,45.68
2018-05-15T19:58:26.045Z,45.76
2018-05-15T20:00:52.414Z,45.84
2018-05-15T20:03:18.842Z,45.90
2018-05-15T20:05:45.205Z,45.97
2018-05-15T20:08:11.517Z,46.01
2018-05-15T20:10:37.888Z,46.09
2018-05-15T20:13:04.205Z,46.04
2018-05-15T20:15:30.560Z,46.09
2018-05-15T20:17:56.878Z,46.16
2018-05-15T20:20:23.204Z,46.21
2018-05-15T20:22:49.538Z,46.28
2018-05-15T20:25:15.873Z,46.42
2018-05-15T20:27:42.267Z,46.38
2018-05-15T20:30:08.592Z,46.48
2018-05-15T20:32:34.914Z,46.52
2018-05-15T20:35:01.412Z,46.50
2018-05-15T20:37:27.620Z,46.64
2018-05-15T20:39:53.985Z,46.65
2018-05-15T20:42:20.301Z,46.68
2018-05-15T20:44:46.624Z,46.72
2018-05-15T20:47:12.980Z,46.78
2018-05-15T20:49:39.295Z,46.76
2018-05-15T20:52:05.721Z,46.87
2018-05-15T20:54:32.056Z,46.92
2018-05-15T20:56:58.378Z,46.98
2018-05-15T20:59:24.699Z,47.04
2018-05-15T21:01:51.126Z,47.07
2018-05-15T21:04:17.441Z,47.03
2018-05-15T21:06:43.760Z,47.13
2018-05-15T21:09:11.112Z,47.23
2018-05-15T21:11:37.432Z,47.35
2018-05-15T21:14:03.772Z,47.38
2018-05-15T21:16:30.103Z,47.41
2018-05-15T21:18:56.466Z,47.42
2018-05-15T21:21:22.788Z,47.47
2018-05-15T21:23:49.114Z,47.51
2018-05-15T21:26:15.460Z,47.55
2018-05-15T21:28:41.814Z,47.65
2018-05-15T21:31:08.176Z,47.68
2018-05-15T21:33:34.552Z,47.72
2018-05-15T21:36:00.878Z,47.79
2018-05-15T21:38:27.199Z,47.82
2018-05-15T21:40:53.583Z,47.89
2018-05-15T21:43:19.976Z,47.90
2018-05-15T21:45:46.344Z,48.08
2018-05-15T21:48:12.664Z,48.07
2018-05-15T21:50:38.987Z,48.10
2018-05-15T21:53:05.351Z,48.17
2018-05-15T21:55:31.671Z,48.27
2018-05-15T21:57:57.984Z,48.36
2018-05-15T22:00:24.352Z,48.47
2018-05-15T22:02:50.673Z,48.46
2018-05-15T22:05:16.996Z,48.57
2018-05-15T22:07:43.309Z,48.56
2018-05-15T22:10:09.661Z,48.69
2018-05-15T22:12:36.008Z,48.66
2018-05-15T22:15:02.348Z,48.86
2018-05-15T22:17:28.723Z,48.84
2018-05-15T22:19:55.099Z,48.80
2018-05-15T22:22:21.484Z,48.84
2018-05-15T22:24:47.821Z,48.93
2018-05-15T22:27:14.140Z,48.92
2018-05-15T22:29:40.463Z,49.03
2018-05-15T22:32:06.803Z,49.06
2018-05-15T22:34:33.153Z,49.16
2018-05-15T22:36:59.527Z,49.16
2018-05-15T22:39:25.925Z,49.15
2018-05-15T22:41:52.246Z,49.27
2018-05-15T22:44:18.599Z,49.18
2018-05-15T22:46:44.920Z,49.25
2018-05-15T22:49:11.273Z,49.29
2018-05-15T22:51:37.646Z,49.34
2018-05-15T22:54:03.966Z,49.34
2018-05-15T22:56:30.321Z,49.46
2018-05-15T22:58:56.642Z,49.44
2018-05-15T23:01:22.956Z,49.47
2018-05-15T23:03:49.285Z,49.52
2018-05-15T23:06:15.608Z,49.56
2018-05-15T23:08:41.943Z,49.48
2018-05-15T23:11:08.262Z,49.57
2018-05-15T23:13:34.611Z,49.58
2018-05-15T23:16:00.931Z,49.63
2018-05-15T23:18:27.256Z,49.62
2018-05-15T23:20:53.573Z,49.63
2018-05-15T23:23:19.892Z,49.63
2018-05-15T23:25:46.219Z,49.64
2018-05-15T23:28:12.560Z,49.71
2018-05-15T23:30:38.922Z,49.72
2018-05-15T23:33:05.250Z,49.76
2018-05-15T23:38:04.085Z,49.84
2018-05-15T23:40:30.450Z,49.81
2018-05-15T23:42:56.777Z,49.83
2018-05-15T23:45:23.104Z,49.81
2018-05-15T23:47:49.429Z,49.92
2018-05-15T23:50:15.745Z,49.94
2018-05-15T23:52:42.088Z,49.98
2018-05-15T23:55:08.406Z,49.90
2018-05-15T23:57:34.729Z,49.95
